sensor_id;sensor_type;location;lat;lon;timestamp;P1;durP1;ratioP1;P2;durP2;ratioP2
44272;SDS011;29964;17.182;-96.766;2022-08-21T00:01:57;1.75;;;1.20;;
44272;SDS011;29964;17.182;-96.766;2022-08-21T00:04:24;4.22;;;0.95;;
44272;SDS011;29964;17.182;-96.766;2022-08-21T00:06:51;2.22;;;1.02;;
44272;SDS011;29964;17.182;-96.766;2022-08-21T00:09:18;3.72;;;1.20;;
44272;SDS011;29964;17.182;-96.766;2022-08-21T00:11:45;1.63;;;1.05;;
44272;SDS011;29964;17.182;-96.766;2022-08-21T00:14:13;1.85;;;0.98;;
44272;SDS011;29964;17.182;-96.766;2022-08-21T00:16:40;1.15;;;0.82;;
44272;SDS011;29964;17.182;-96.766;2022-08-21T00:19:07;4.53;;;1.10;;
44272;SDS011;29964;17.182;-96.766;2022-08-21T00:21:34;3.80;;;1.38;;
44272;SDS011;29964;17.182;-96.766;2022-08-21T00:24:01;4.97;;;1.13;;
44272;SDS011;29964;17.182;-96.766;2022-08-21T00:26:27;3.60;;;1.40;;
44272;SDS011;29964;17.182;-96.766;2022-08-21T00:28:54;4.38;;;1.33;;
44272;SDS011;29964;17.182;-96.766;2022-08-21T00:31:21;2.38;;;1.60;;
44272;SDS011;29964;17.182;-96.766;2022-08-21T00:33:47;1.23;;;0.95;;
44272;SDS011;29964;17.182;-96.766;2022-08-21T00:36:14;3.90;;;2.15;;
44272;SDS011;29964;17.182;-96.766;2022-08-21T00:38:41;4.35;;;1.92;;
44272;SDS011;29964;17.182;-96.766;2022-08-21T00:41:09;17.98;;;3.08;;
44272;SDS011;29964;17.182;-96.766;2022-08-21T00:43:37;2.00;;;1.40;;
44272;SDS011;29964;17.182;-96.766;2022-08-21T00:46:04;6.50;;;2.33;;
44272;SDS011;29964;17.182;-96.766;2022-08-21T00:48:31;4.25;;;1.88;;
44272;SDS011;29964;17.182;-96.766;2022-08-21T00:51:17;4.73;;;1.50;;
44272;SDS011;29964;17.182;-96.766;2022-08-21T00:53:51;3.80;;;1.70;;
44272;SDS011;29964;17.182;-96.766;2022-08-21T00:56:19;6.27;;;1.90;;
44272;SDS011;29964;17.182;-96.766;2022-08-21T00:58:47;6.93;;;1.50;;
44272;SDS011;29964;17.182;-96.766;2022-08-21T01:01:13;3.53;;;1.07;;
44272;SDS011;29964;17.182;-96.766;2022-08-21T01:03:40;2.10;;;1.10;;
44272;SDS011;29964;17.182;-96.766;2022-08-21T01:06:07;3.67;;;1.53;;
44272;SDS011;29964;17.182;-96.766;2022-08-21T01:08:34;2.13;;;1.30;;
44272;SDS011;29964;17.182;-96.766;2022-08-21T01:11:02;2.77;;;1.27;;
44272;SDS011;29964;17.182;-96.766;2022-08-21T01:13:30;6.33;;;1.10;;
44272;SDS011;29964;17.182;-96.766;2022-08-21T01:15:59;2.30;;;1.33;;
44272;SDS011;29964;17.182;-96.766;2022-08-21T01:18:27;12.53;;;1.67;;
44272;SDS011;29964;17.182;-96.766;2022-08-21T01:23:37;1.77;;;1.20;;
44272;SDS011;29964;17.182;-96.766;2022-08-21T01:26:04;4.00;;;1.40;;
44272;SDS011;29964;17.182;-96.766;2022-08-21T01:28:33;1.57;;;1.13;;
44272;SDS011;29964;17.182;-96.766;2022-08-21T01:31:01;1.60;;;1.00;;
44272;SDS011;29964;17.182;-96.766;2022-08-21T01:33:29;2.50;;;1.10;;
44272;SDS011;29964;17.182;-96.766;2022-08-21T01:35:56;1.87;;;0.90;;
44272;SDS011;29964;17.182;-96.766;2022-08-21T01:38:22;3.03;;;1.57;;
44272;SDS011;29964;17.182;-96.766;2022-08-21T01:40:49;1.70;;;0.90;;
44272;SDS011;29964;17.182;-96.766;2022-08-21T01:43:16;5.77;;;1.60;;
44272;SDS011;29964;17.182;-96.766;2022-08-21T01:45:43;2.77;;;1.30;;
44272;SDS011;29964;17.182;-96.766;2022-08-21T01:48:10;8.60;;;1.63;;
44272;SDS011;29964;17.182;-96.766;2022-08-21T01:50:37;1.67;;;1.07;;
44272;SDS011;29964;17.182;-96.766;2022-08-21T01:53:03;4.07;;;1.40;;
44272;SDS011;29964;17.182;-96.766;2022-08-21T01:55:30;9.10;;;1.73;;
44272;SDS011;29964;17.182;-96.766;2022-08-21T01:57:57;2.03;;;1.30;;
44272;SDS011;29964;17.182;-96.766;2022-08-21T02:00:25;4.53;;;1.53;;
44272;SDS011;29964;17.182;-96.766;2022-08-21T02:02:52;2.67;;;1.80;;
44272;SDS011;29964;17.182;-96.766;2022-08-21T02:05:19;3.87;;;1.50;;
44272;SDS011;29964;17.182;-96.766;2022-08-21T02:07:47;0.50;;;0.50;;
44272;SDS011;29964;17.182;-96.766;2022-08-21T02:10:15;1.43;;;1.10;;
44272;SDS011;29964;17.182;-96.766;2022-08-21T02:12:42;3.57;;;1.87;;
44272;SDS011;29964;17.182;-96.766;2022-08-21T02:15:09;6.77;;;2.77;;
44272;SDS011;29964;17.182;-96.766;2022-08-21T02:17:43;3.63;;;1.63;;
44272;SDS011;29964;17.182;-96.766;2022-08-21T02:20:12;2.97;;;1.50;;
44272;SDS011;29964;17.182;-96.766;2022-08-21T02:22:41;6.20;;;2.60;;
44272;SDS011;29964;17.182;-96.766;2022-08-21T02:25:07;2.53;;;1.27;;
44272;SDS011;29964;17.182;-96.766;2022-08-21T02:27:39;3.07;;;1.37;;
44272;SDS011;29964;17.182;-96.766;2022-08-21T02:30:06;4.17;;;1.70;;
44272;SDS011;29964;17.182;-96.766;2022-08-21T02:32:33;5.43;;;1.63;;
44272;SDS011;29964;17.182;-96.766;2022-08-21T02:34:59;7.37;;;2.10;;
44272;SDS011;29964;17.182;-96.766;2022-08-21T02:37:26;2.67;;;1.83;;
44272;SDS011;29964;17.182;-96.766;2022-08-21T02:39:53;3.53;;;1.80;;
44272;SDS011;29964;17.182;-96.766;2022-08-21T02:42:19;3.37;;;2.00;;
44272;SDS011;29964;17.182;-96.766;2022-08-21T02:44:46;3.10;;;2.40;;
44272;SDS011;29964;17.182;-96.766;2022-08-21T02:47:13;4.77;;;2.97;;
44272;SDS011;29964;17.182;-96.766;2022-08-21T02:49:40;7.87;;;2.70;;
44272;SDS011;29964;17.182;-96.766;2022-08-21T02:52:07;7.23;;;3.40;;
44272;SDS011;29964;17.182;-96.766;2022-08-21T02:54:33;9.90;;;5.07;;
44272;SDS011;29964;17.182;-96.766;2022-08-21T02:57:00;8.07;;;4.90;;
44272;SDS011;29964;17.182;-96.766;2022-08-21T02:59:26;7.57;;;3.83;;
44272;SDS011;29964;17.182;-96.766;2022-08-21T03:01:53;5.83;;;3.33;;
44272;SDS011;29964;17.182;-96.766;2022-08-21T03:04:21;7.33;;;4.93;;
44272;SDS011;29964;17.182;-96.766;2022-08-21T03:06:47;7.53;;;4.90;;
44272;SDS011;29964;17.182;-96.766;2022-08-21T03:09:14;7.80;;;5.00;;
44272;SDS011;29964;17.182;-96.766;2022-08-21T03:11:41;13.63;;;7.07;;
44272;SDS011;29964;17.182;-96.766;2022-08-21T03:14:07;10.27;;;6.03;;
44272;SDS011;29964;17.182;-96.766;2022-08-21T03:16:34;11.13;;;5.57;;
44272;SDS011;29964;17.182;-96.766;2022-08-21T03:19:01;8.57;;;5.13;;
44272;SDS011;29964;17.182;-96.766;2022-08-21T03:21:28;16.97;;;7.43;;
44272;SDS011;29964;17.182;-96.766;2022-08-21T03:23:55;7.80;;;4.60;;
44272;SDS011;29964;17.182;-96.766;2022-08-21T03:26:22;3.67;;;2.77;;
44272;SDS011;29964;17.182;-96.766;2022-08-21T03:28:49;6.03;;;3.77;;
44272;SDS011;29964;17.182;-96.766;2022-08-21T03:31:16;7.40;;;3.33;;
44272;SDS011;29964;17.182;-96.766;2022-08-21T03:33:43;6.67;;;3.93;;
44272;SDS011;29964;17.182;-96.766;2022-08-21T03:36:10;3.73;;;2.73;;
44272;SDS011;29964;17.182;-96.766;2022-08-21T03:38:37;9.70;;;3.00;;
44272;SDS011;29964;17.182;-96.766;2022-08-21T03:41:04;5.27;;;3.23;;
44272;SDS011;29964;17.182;-96.766;2022-08-21T03:43:31;5.30;;;3.07;;
44272;SDS011;29964;17.182;-96.766;2022-08-21T03:46:00;4.73;;;2.93;;
44272;SDS011;29964;17.182;-96.766;2022-08-21T03:48:27;7.50;;;3.20;;
44272;SDS011;29964;17.182;-96.766;2022-08-21T03:50:54;4.53;;;2.80;;
44272;SDS011;29964;17.182;-96.766;2022-08-21T03:53:21;6.07;;;3.87;;
44272;SDS011;29964;17.182;-96.766;2022-08-21T03:55:49;6.27;;;3.47;;
44272;SDS011;29964;17.182;-96.766;2022-08-21T03:58:18;5.57;;;2.93;;
44272;SDS011;29964;17.182;-96.766;2022-08-21T04:00:45;5.40;;;3.33;;
44272;SDS011;29964;17.182;-96.766;2022-08-21T04:03:12;6.07;;;3.60;;
44272;SDS011;29964;17.182;-96.766;2022-08-21T04:05:39;5.03;;;2.80;;
44272;SDS011;29964;17.182;-96.766;2022-08-21T04:08:06;6.07;;;3.87;;
44272;SDS011;29964;17.182;-96.766;2022-08-21T04:10:35;5.50;;;2.90;;
44272;SDS011;29964;17.182;-96.766;2022-08-21T04:13:02;13.27;;;5.77;;
44272;SDS011;29964;17.182;-96.766;2022-08-21T04:15:29;8.67;;;3.83;;
44272;SDS011;29964;17.182;-96.766;2022-08-21T04:17:55;4.80;;;2.43;;
44272;SDS011;29964;17.182;-96.766;2022-08-21T04:20:22;2.97;;;2.03;;
44272;SDS011;29964;17.182;-96.766;2022-08-21T04:22:50;6.40;;;2.63;;
44272;SDS011;29964;17.182;-96.766;2022-08-21T04:25:17;3.47;;;2.03;;
44272;SDS011;29964;17.182;-96.766;2022-08-21T04:27:45;5.83;;;2.87;;
44272;SDS011;29964;17.182;-96.766;2022-08-21T04:30:12;3.53;;;2.40;;
44272;SDS011;29964;17.182;-96.766;2022-08-21T04:32:41;2.60;;;1.63;;
44272;SDS011;29964;17.182;-96.766;2022-08-21T04:35:09;2.00;;;1.30;;
44272;SDS011;29964;17.182;-96.766;2022-08-21T04:37:36;11.37;;;2.00;;
44272;SDS011;29964;17.182;-96.766;2022-08-21T04:40:03;2.13;;;1.63;;
44272;SDS011;29964;17.182;-96.766;2022-08-21T04:42:30;3.67;;;2.60;;
44272;SDS011;29964;17.182;-96.766;2022-08-21T04:44:57;1.80;;;1.30;;
44272;SDS011;29964;17.182;-96.766;2022-08-21T04:47:24;2.47;;;1.53;;
44272;SDS011;29964;17.182;-96.766;2022-08-21T04:49:50;1.43;;;1.20;;
44272;SDS011;29964;17.182;-96.766;2022-08-21T04:52:19;3.43;;;1.70;;
44272;SDS011;29964;17.182;-96.766;2022-08-21T04:54:47;5.53;;;2.17;;
44272;SDS011;29964;17.182;-96.766;2022-08-21T04:57:16;4.67;;;2.53;;
44272;SDS011;29964;17.182;-96.766;2022-08-21T04:59:47;2.33;;;1.43;;
44272;SDS011;29964;17.182;-96.766;2022-08-21T05:02:14;3.10;;;1.40;;
44272;SDS011;29964;17.182;-96.766;2022-08-21T05:04:48;2.53;;;1.90;;
44272;SDS011;29964;17.182;-96.766;2022-08-21T05:09:42;7.73;;;1.90;;
44272;SDS011;29964;17.182;-96.766;2022-08-21T05:12:09;2.37;;;1.50;;
44272;SDS011;29964;17.182;-96.766;2022-08-21T05:14:36;3.60;;;2.10;;
44272;SDS011;29964;17.182;-96.766;2022-08-21T05:17:03;1.27;;;1.03;;
44272;SDS011;29964;17.182;-96.766;2022-08-21T05:19:30;2.57;;;1.73;;
44272;SDS011;29964;17.182;-96.766;2022-08-21T05:21:57;3.03;;;1.60;;
44272;SDS011;29964;17.182;-96.766;2022-08-21T05:24:23;5.13;;;1.90;;
44272;SDS011;29964;17.182;-96.766;2022-08-21T05:26:50;1.43;;;1.07;;
44272;SDS011;29964;17.182;-96.766;2022-08-21T05:29:16;4.93;;;1.43;;
44272;SDS011;29964;17.182;-96.766;2022-08-21T05:31:43;1.93;;;1.53;;
44272;SDS011;29964;17.182;-96.766;2022-08-21T05:34:10;2.93;;;1.90;;
44272;SDS011;29964;17.182;-96.766;2022-08-21T05:36:37;5.53;;;1.83;;
44272;SDS011;29964;17.182;-96.766;2022-08-21T05:39:03;4.43;;;1.93;;
44272;SDS011;29964;17.182;-96.766;2022-08-21T05:41:30;3.57;;;1.47;;
44272;SDS011;29964;17.182;-96.766;2022-08-21T05:43:56;1.90;;;1.43;;
44272;SDS011;29964;17.182;-96.766;2022-08-21T05:46:23;2.03;;;1.43;;
44272;SDS011;29964;17.182;-96.766;2022-08-21T05:48:50;5.57;;;1.50;;
44272;SDS011;29964;17.182;-96.766;2022-08-21T05:51:16;1.70;;;1.10;;
44272;SDS011;29964;17.182;-96.766;2022-08-21T05:53:43;1.47;;;1.00;;
44272;SDS011;29964;17.182;-96.766;2022-08-21T05:56:10;1.63;;;1.17;;
44272;SDS011;29964;17.182;-96.766;2022-08-21T05:58:37;1.80;;;1.37;;
44272;SDS011;29964;17.182;-96.766;2022-08-21T06:01:04;6.67;;;2.23;;
44272;SDS011;29964;17.182;-96.766;2022-08-21T06:03:33;1.80;;;1.27;;
44272;SDS011;29964;17.182;-96.766;2022-08-21T06:06:00;1.73;;;1.27;;
44272;SDS011;29964;17.182;-96.766;2022-08-21T06:08:27;4.20;;;2.07;;
44272;SDS011;29964;17.182;-96.766;2022-08-21T06:10:54;2.43;;;1.43;;
44272;SDS011;29964;17.182;-96.766;2022-08-21T06:13:22;2.83;;;1.50;;
44272;SDS011;29964;17.182;-96.766;2022-08-21T06:15:49;1.80;;;1.23;;
44272;SDS011;29964;17.182;-96.766;2022-08-21T06:18:16;1.30;;;0.80;;
44272;SDS011;29964;17.182;-96.766;2022-08-21T06:20:43;4.13;;;1.23;;
44272;SDS011;29964;17.182;-96.766;2022-08-21T06:23:10;2.67;;;1.63;;
44272;SDS011;29964;17.182;-96.766;2022-08-21T06:25:38;0.97;;;0.77;;
44272;SDS011;29964;17.182;-96.766;2022-08-21T06:28:06;2.33;;;1.30;;
44272;SDS011;29964;17.182;-96.766;2022-08-21T06:30:34;4.93;;;2.00;;
44272;SDS011;29964;17.182;-96.766;2022-08-21T06:33:01;0.83;;;0.63;;
44272;SDS011;29964;17.182;-96.766;2022-08-21T06:35:28;1.97;;;0.97;;
44272;SDS011;29964;17.182;-96.766;2022-08-21T06:37:56;1.53;;;0.90;;
44272;SDS011;29964;17.182;-96.766;2022-08-21T06:40:22;1.07;;;0.90;;
44272;SDS011;29964;17.182;-96.766;2022-08-21T06:42:49;2.17;;;1.43;;
44272;SDS011;29964;17.182;-96.766;2022-08-21T06:45:16;3.23;;;1.37;;
44272;SDS011;29964;17.182;-96.766;2022-08-21T06:47:42;1.30;;;1.10;;
44272;SDS011;29964;17.182;-96.766;2022-08-21T06:50:09;0.83;;;0.70;;
44272;SDS011;29964;17.182;-96.766;2022-08-21T06:52:36;1.80;;;1.33;;
44272;SDS011;29964;17.182;-96.766;2022-08-21T06:55:09;3.30;;;1.00;;
44272;SDS011;29964;17.182;-96.766;2022-08-21T06:57:36;5.00;;;1.50;;
44272;SDS011;29964;17.182;-96.766;2022-08-21T07:00:04;4.80;;;1.10;;
44272;SDS011;29964;17.182;-96.766;2022-08-21T07:02:31;1.93;;;1.33;;
44272;SDS011;29964;17.182;-96.766;2022-08-21T07:04:58;1.80;;;1.13;;
44272;SDS011;29964;17.182;-96.766;2022-08-21T07:07:25;1.87;;;1.43;;
44272;SDS011;29964;17.182;-96.766;2022-08-21T07:09:52;3.70;;;1.77;;
44272;SDS011;29964;17.182;-96.766;2022-08-21T07:12:18;1.00;;;0.90;;
44272;SDS011;29964;17.182;-96.766;2022-08-21T07:14:45;3.23;;;1.77;;
44272;SDS011;29964;17.182;-96.766;2022-08-21T07:17:12;1.60;;;1.00;;
44272;SDS011;29964;17.182;-96.766;2022-08-21T07:19:39;2.60;;;1.33;;
44272;SDS011;29964;17.182;-96.766;2022-08-21T07:22:05;4.63;;;1.17;;
44272;SDS011;29964;17.182;-96.766;2022-08-21T07:24:32;4.20;;;1.23;;
44272;SDS011;29964;17.182;-96.766;2022-08-21T07:26:59;1.70;;;1.20;;
44272;SDS011;29964;17.182;-96.766;2022-08-21T07:29:25;1.20;;;0.83;;
44272;SDS011;29964;17.182;-96.766;2022-08-21T07:31:52;10.77;;;0.90;;
44272;SDS011;29964;17.182;-96.766;2022-08-21T07:34:18;0.40;;;0.40;;
44272;SDS011;29964;17.182;-96.766;2022-08-21T07:36:45;1.73;;;1.13;;
44272;SDS011;29964;17.182;-96.766;2022-08-21T07:39:12;3.57;;;1.50;;
44272;SDS011;29964;17.182;-96.766;2022-08-21T07:41:38;1.73;;;1.03;;
44272;SDS011;29964;17.182;-96.766;2022-08-21T07:44:05;2.53;;;1.43;;
44272;SDS011;29964;17.182;-96.766;2022-08-21T07:46:32;3.03;;;1.40;;
44272;SDS011;29964;17.182;-96.766;2022-08-21T07:48:58;1.97;;;1.33;;
44272;SDS011;29964;17.182;-96.766;2022-08-21T07:51:26;3.57;;;1.53;;
44272;SDS011;29964;17.182;-96.766;2022-08-21T07:53:53;1.40;;;0.90;;
44272;SDS011;29964;17.182;-96.766;2022-08-21T07:56:20;4.57;;;0.60;;
44272;SDS011;29964;17.182;-96.766;2022-08-21T07:58:47;1.53;;;1.13;;
44272;SDS011;29964;17.182;-96.766;2022-08-21T08:01:14;0.63;;;0.63;;
44272;SDS011;29964;17.182;-96.766;2022-08-21T08:03:41;3.83;;;1.37;;
44272;SDS011;29964;17.182;-96.766;2022-08-21T08:06:08;9.77;;;1.63;;
44272;SDS011;29964;17.182;-96.766;2022-08-21T08:08:40;1.17;;;1.00;;
44272;SDS011;29964;17.182;-96.766;2022-08-21T08:11:08;2.97;;;1.23;;
44272;SDS011;29964;17.182;-96.766;2022-08-21T08:13:45;2.53;;;1.53;;
44272;SDS011;29964;17.182;-96.766;2022-08-21T08:16:12;1.80;;;1.00;;
44272;SDS011;29964;17.182;-96.766;2022-08-21T08:18:39;1.13;;;0.93;;
44272;SDS011;29964;17.182;-96.766;2022-08-21T08:21:07;1.00;;;0.80;;
44272;SDS011;29964;17.182;-96.766;2022-08-21T08:23:34;2.00;;;1.07;;
44272;SDS011;29964;17.182;-96.766;2022-08-21T08:26:01;1.67;;;1.07;;
44272;SDS011;29964;17.182;-96.766;2022-08-21T08:28:28;3.13;;;1.33;;
44272;SDS011;29964;17.182;-96.766;2022-08-21T08:30:57;0.57;;;0.57;;
44272;SDS011;29964;17.182;-96.766;2022-08-21T08:33:23;1.97;;;1.27;;
44272;SDS011;29964;17.182;-96.766;2022-08-21T08:35:50;0.77;;;0.67;;
44272;SDS011;29964;17.182;-96.766;2022-08-21T08:38:18;3.50;;;1.60;;
44272;SDS011;29964;17.182;-96.766;2022-08-21T08:43:28;1.97;;;0.83;;
44272;SDS011;29964;17.182;-96.766;2022-08-21T08:45:55;0.83;;;0.70;;
44272;SDS011;29964;17.182;-96.766;2022-08-21T08:51:14;2.45;;;1.17;;
44272;SDS011;29964;17.182;-96.766;2022-08-21T08:53:49;0.70;;;0.60;;
44272;SDS011;29964;17.182;-96.766;2022-08-21T08:56:18;0.70;;;0.60;;
44272;SDS011;29964;17.182;-96.766;2022-08-21T08:58:45;1.03;;;0.70;;
44272;SDS011;29964;17.182;-96.766;2022-08-21T09:01:17;2.80;;;0.93;;
44272;SDS011;29964;17.182;-96.766;2022-08-21T09:03:44;1.40;;;0.93;;
44272;SDS011;29964;17.182;-96.766;2022-08-21T09:11:27;1.23;;;1.00;;
44272;SDS011;29964;17.182;-96.766;2022-08-21T09:13:58;1.70;;;1.23;;
44272;SDS011;29964;17.182;-96.766;2022-08-21T09:19:05;1.80;;;0.87;;
44272;SDS011;29964;17.182;-96.766;2022-08-21T09:21:39;1.40;;;0.83;;
44272;SDS011;29964;17.182;-96.766;2022-08-21T09:26:44;0.73;;;0.67;;
44272;SDS011;29964;17.182;-96.766;2022-08-21T09:29:13;1.43;;;0.90;;
44272;SDS011;29964;17.182;-96.766;2022-08-21T09:31:42;1.10;;;0.63;;
44272;SDS011;29964;17.182;-96.766;2022-08-21T09:34:09;0.90;;;0.63;;
44272;SDS011;29964;17.182;-96.766;2022-08-21T09:36:43;1.17;;;0.97;;
44272;SDS011;29964;17.182;-96.766;2022-08-21T09:39:11;0.80;;;0.60;;
44272;SDS011;29964;17.182;-96.766;2022-08-21T09:41:39;1.50;;;0.83;;
44272;SDS011;29964;17.182;-96.766;2022-08-21T09:44:06;2.27;;;0.83;;
44272;SDS011;29964;17.182;-96.766;2022-08-21T09:46:33;1.23;;;0.77;;
44272;SDS011;29964;17.182;-96.766;2022-08-21T09:49:02;1.70;;;1.03;;
44272;SDS011;29964;17.182;-96.766;2022-08-21T09:51:30;0.63;;;0.60;;
44272;SDS011;29964;17.182;-96.766;2022-08-21T09:54:00;1.57;;;0.77;;
44272;SDS011;29964;17.182;-96.766;2022-08-21T09:56:37;2.27;;;1.20;;
44272;SDS011;29964;17.182;-96.766;2022-08-21T09:59:33;0.70;;;0.53;;
44272;SDS011;29964;17.182;-96.766;2022-08-21T10:02:01;32.43;;;1.47;;
44272;SDS011;29964;17.182;-96.766;2022-08-21T10:04:29;1.97;;;1.37;;
44272;SDS011;29964;17.182;-96.766;2022-08-21T10:07:19;1.70;;;0.90;;
44272;SDS011;29964;17.182;-96.766;2022-08-21T10:09:42;3.10;;;1.17;;
44272;SDS011;29964;17.182;-96.766;2022-08-21T10:12:16;4.83;;;1.00;;
44272;SDS011;29964;17.182;-96.766;2022-08-21T10:17:52;1.55;;;0.85;;
44272;SDS011;29964;17.182;-96.766;2022-08-21T10:20:25;1.20;;;0.90;;
44272;SDS011;29964;17.182;-96.766;2022-08-21T10:25:23;4.53;;;1.10;;
44272;SDS011;29964;17.182;-96.766;2022-08-21T10:33:02;0.77;;;0.60;;
44272;SDS011;29964;17.182;-96.766;2022-08-21T10:35:37;0.60;;;0.60;;
44272;SDS011;29964;17.182;-96.766;2022-08-21T10:40:57;1.63;;;0.98;;
44272;SDS011;29964;17.182;-96.766;2022-08-21T10:43:44;1.17;;;0.70;;
44272;SDS011;29964;17.182;-96.766;2022-08-21T10:48:54;1.50;;;0.83;;
44272;SDS011;29964;17.182;-96.766;2022-08-21T10:51:33;4.37;;;1.03;;
44272;SDS011;29964;17.182;-96.766;2022-08-21T10:56:43;0.57;;;0.43;;
44272;SDS011;29964;17.182;-96.766;2022-08-21T11:01:50;0.87;;;0.73;;
44272;SDS011;29964;17.182;-96.766;2022-08-21T11:06:49;1.40;;;0.93;;
44272;SDS011;29964;17.182;-96.766;2022-08-21T11:09:19;2.77;;;1.23;;
44272;SDS011;29964;17.182;-96.766;2022-08-21T11:12:03;0.77;;;0.50;;
44272;SDS011;29964;17.182;-96.766;2022-08-21T11:17:08;1.77;;;1.10;;
44272;SDS011;29964;17.182;-96.766;2022-08-21T11:19:45;1.43;;;1.00;;
44272;SDS011;29964;17.182;-96.766;2022-08-21T11:22:25;2.83;;;1.63;;
44272;SDS011;29964;17.182;-96.766;2022-08-21T11:25:06;3.87;;;1.23;;
44272;SDS011;29964;17.182;-96.766;2022-08-21T11:27:46;0.90;;;0.70;;
44272;SDS011;29964;17.182;-96.766;2022-08-21T11:30:15;0.97;;;0.87;;
44272;SDS011;29964;17.182;-96.766;2022-08-21T11:45:28;0.37;;;0.37;;
44272;SDS011;29964;17.182;-96.766;2022-08-21T11:50:34;2.07;;;0.70;;
44272;SDS011;29964;17.182;-96.766;2022-08-21T11:53:08;1.80;;;1.17;;
44272;SDS011;29964;17.182;-96.766;2022-08-21T11:58:09;1.17;;;0.80;;
44272;SDS011;29964;17.182;-96.766;2022-08-21T12:00:42;1.00;;;0.80;;
44272;SDS011;29964;17.182;-96.766;2022-08-21T12:03:14;0.70;;;0.60;;
44272;SDS011;29964;17.182;-96.766;2022-08-21T12:05:43;0.43;;;0.43;;
44272;SDS011;29964;17.182;-96.766;2022-08-21T12:08:12;0.67;;;0.47;;
44272;SDS011;29964;17.182;-96.766;2022-08-21T12:10:40;1.53;;;0.70;;
44272;SDS011;29964;17.182;-96.766;2022-08-21T12:13:09;2.80;;;1.37;;
44272;SDS011;29964;17.182;-96.766;2022-08-21T12:15:36;0.87;;;0.80;;
44272;SDS011;29964;17.182;-96.766;2022-08-21T12:18:22;2.13;;;1.50;;
44272;SDS011;29964;17.182;-96.766;2022-08-21T12:23:43;1.58;;;1.15;;
44272;SDS011;29964;17.182;-96.766;2022-08-21T12:26:16;1.00;;;0.73;;
44272;SDS011;29964;17.182;-96.766;2022-08-21T12:28:44;1.27;;;1.03;;
44272;SDS011;29964;17.182;-96.766;2022-08-21T12:31:18;1.20;;;1.10;;
44272;SDS011;29964;17.182;-96.766;2022-08-21T12:33:49;2.53;;;1.48;;
44272;SDS011;29964;17.182;-96.766;2022-08-21T12:36:17;1.33;;;1.03;;
44272;SDS011;29964;17.182;-96.766;2022-08-21T12:38:54;1.20;;;1.03;;
44272;SDS011;29964;17.182;-96.766;2022-08-21T12:41:31;2.83;;;1.73;;
44272;SDS011;29964;17.182;-96.766;2022-08-21T12:44:07;2.43;;;1.87;;
44272;SDS011;29964;17.182;-96.766;2022-08-21T12:46:56;2.20;;;1.20;;
44272;SDS011;29964;17.182;-96.766;2022-08-21T12:52:04;2.17;;;1.50;;
44272;SDS011;29964;17.182;-96.766;2022-08-21T12:54:36;2.07;;;1.43;;
44272;SDS011;29964;17.182;-96.766;2022-08-21T12:57:04;1.30;;;1.20;;
44272;SDS011;29964;17.182;-96.766;2022-08-21T12:59:31;0.60;;;0.50;;
44272;SDS011;29964;17.182;-96.766;2022-08-21T13:01:59;2.27;;;1.87;;
44272;SDS011;29964;17.182;-96.766;2022-08-21T13:04:36;1.87;;;1.27;;
44272;SDS011;29964;17.182;-96.766;2022-08-21T13:07:09;4.97;;;2.27;;
44272;SDS011;29964;17.182;-96.766;2022-08-21T13:09:40;1.77;;;1.33;;
44272;SDS011;29964;17.182;-96.766;2022-08-21T13:12:08;1.67;;;1.37;;
44272;SDS011;29964;17.182;-96.766;2022-08-21T13:14:37;4.37;;;2.40;;
44272;SDS011;29964;17.182;-96.766;2022-08-21T13:17:05;3.30;;;1.57;;
44272;SDS011;29964;17.182;-96.766;2022-08-21T13:19:32;1.50;;;1.20;;
44272;SDS011;29964;17.182;-96.766;2022-08-21T13:21:59;2.57;;;1.70;;
44272;SDS011;29964;17.182;-96.766;2022-08-21T13:24:30;3.60;;;1.93;;
44272;SDS011;29964;17.182;-96.766;2022-08-21T13:26:58;5.40;;;2.23;;
44272;SDS011;29964;17.182;-96.766;2022-08-21T13:29:29;2.17;;;1.47;;
44272;SDS011;29964;17.182;-96.766;2022-08-21T13:31:57;2.23;;;1.63;;
44272;SDS011;29964;17.182;-96.766;2022-08-21T13:34:26;1.43;;;1.20;;
44272;SDS011;29964;17.182;-96.766;2022-08-21T13:36:56;1.97;;;1.23;;
44272;SDS011;29964;17.182;-96.766;2022-08-21T13:39:24;2.40;;;1.80;;
44272;SDS011;29964;17.182;-96.766;2022-08-21T13:41:52;1.43;;;1.00;;
44272;SDS011;29964;17.182;-96.766;2022-08-21T13:44:24;2.00;;;1.50;;
44272;SDS011;29964;17.182;-96.766;2022-08-21T13:46:59;4.47;;;1.70;;
44272;SDS011;29964;17.182;-96.766;2022-08-21T13:49:29;1.33;;;1.10;;
44272;SDS011;29964;17.182;-96.766;2022-08-21T13:51:56;3.50;;;1.50;;
44272;SDS011;29964;17.182;-96.766;2022-08-21T13:54:33;5.80;;;2.00;;
44272;SDS011;29964;17.182;-96.766;2022-08-21T13:57:01;26.93;;;2.93;;
44272;SDS011;29964;17.182;-96.766;2022-08-21T13:59:31;3.17;;;1.60;;
44272;SDS011;29964;17.182;-96.766;2022-08-21T14:02:18;4.20;;;2.70;;
44272;SDS011;29964;17.182;-96.766;2022-08-21T14:04:54;3.83;;;1.80;;
44272;SDS011;29964;17.182;-96.766;2022-08-21T14:07:31;5.33;;;2.67;;
44272;SDS011;29964;17.182;-96.766;2022-08-21T14:10:13;2.43;;;2.00;;
44272;SDS011;29964;17.182;-96.766;2022-08-21T14:15:14;2.43;;;1.83;;
44272;SDS011;29964;17.182;-96.766;2022-08-21T14:17:41;5.37;;;2.70;;
44272;SDS011;29964;17.182;-96.766;2022-08-21T14:20:10;4.57;;;2.80;;
44272;SDS011;29964;17.182;-96.766;2022-08-21T14:22:41;4.10;;;2.57;;
44272;SDS011;29964;17.182;-96.766;2022-08-21T14:25:11;3.00;;;2.03;;
44272;SDS011;29964;17.182;-96.766;2022-08-21T14:30:33;5.80;;;2.97;;
44272;SDS011;29964;17.182;-96.766;2022-08-21T14:33:01;4.47;;;2.37;;
44272;SDS011;29964;17.182;-96.766;2022-08-21T14:35:29;4.43;;;2.63;;
44272;SDS011;29964;17.182;-96.766;2022-08-21T14:37:56;3.40;;;2.17;;
44272;SDS011;29964;17.182;-96.766;2022-08-21T14:40:23;7.73;;;2.40;;
44272;SDS011;29964;17.182;-96.766;2022-08-21T14:42:51;7.83;;;2.30;;
44272;SDS011;29964;17.182;-96.766;2022-08-21T14:45:19;5.90;;;2.27;;
44272;SDS011;29964;17.182;-96.766;2022-08-21T14:47:46;3.73;;;2.10;;
44272;SDS011;29964;17.182;-96.766;2022-08-21T14:50:13;3.93;;;2.30;;
44272;SDS011;29964;17.182;-96.766;2022-08-21T14:52:40;4.93;;;2.27;;
44272;SDS011;29964;17.182;-96.766;2022-08-21T14:55:08;3.83;;;1.93;;
44272;SDS011;29964;17.182;-96.766;2022-08-21T14:57:41;3.73;;;1.90;;
44272;SDS011;29964;17.182;-96.766;2022-08-21T15:00:09;3.37;;;2.40;;
44272;SDS011;29964;17.182;-96.766;2022-08-21T15:02:36;3.20;;;1.80;;
44272;SDS011;29964;17.182;-96.766;2022-08-21T15:05:03;3.10;;;2.23;;
44272;SDS011;29964;17.182;-96.766;2022-08-21T15:07:30;2.43;;;1.97;;
44272;SDS011;29964;17.182;-96.766;2022-08-21T15:09:56;4.93;;;2.23;;
44272;SDS011;29964;17.182;-96.766;2022-08-21T15:12:23;5.33;;;2.53;;
44272;SDS011;29964;17.182;-96.766;2022-08-21T15:14:51;4.93;;;2.00;;
44272;SDS011;29964;17.182;-96.766;2022-08-21T15:17:18;3.73;;;1.80;;
44272;SDS011;29964;17.182;-96.766;2022-08-21T15:19:44;6.03;;;2.13;;
44272;SDS011;29964;17.182;-96.766;2022-08-21T15:22:11;4.53;;;2.07;;
44272;SDS011;29964;17.182;-96.766;2022-08-21T15:24:38;5.53;;;2.10;;
44272;SDS011;29964;17.182;-96.766;2022-08-21T15:27:06;4.43;;;2.70;;
44272;SDS011;29964;17.182;-96.766;2022-08-21T15:29:33;3.38;;;1.52;;
44272;SDS011;29964;17.182;-96.766;2022-08-21T15:32:01;3.08;;;1.75;;
44272;SDS011;29964;17.182;-96.766;2022-08-21T15:34:29;5.32;;;2.28;;
44272;SDS011;29964;17.182;-96.766;2022-08-21T15:36:56;7.22;;;1.92;;
44272;SDS011;29964;17.182;-96.766;2022-08-21T15:39:24;3.78;;;1.92;;
44272;SDS011;29964;17.182;-96.766;2022-08-21T15:41:51;5.25;;;2.45;;
44272;SDS011;29964;17.182;-96.766;2022-08-21T15:44:18;4.55;;;2.03;;
44272;SDS011;29964;17.182;-96.766;2022-08-21T15:46:45;4.93;;;2.30;;